sensor_id;sensor_type;location;lat;lon;timestamp;pressure;altitude;pressure_sealevel;temperature;humidity
6851;BME280;3464;42.728;23.296;2023-04-01T00:01:13;94385.04;;;15.21;54.47
6851;BME280;3464;42.728;23.296;2023-04-01T00:03:40;94397.59;;;15.08;54.82
6851;BME280;3464;42.728;23.296;2023-04-01T00:06:10;94405.95;;;15.12;54.74
6851;BME280;3464;42.728;23.296;2023-04-01T00:08:36;94408.17;;;15.26;54.57
6851;BME280;3464;42.728;23.296;2023-04-01T00:11:03;94401.91;;;15.22;54.39
6851;BME280;3464;42.728;23.296;2023-04-01T00:13:30;94407.62;;;15.51;54.05
6851;BME280;3464;42.728;23.296;2023-04-01T00:15:59;94406.13;;;15.23;54.31
6851;BME280;3464;42.728;23.296;2023-04-01T00:18:27;94403.35;;;14.97;54.85
6851;BME280;3464;42.728;23.296;2023-04-01T00:20:55;94396.84;;;15.22;54.40
6851;BME280;3464;42.728;23.296;2023-04-01T00:23:23;94397.31;;;15.03;54.63
6851;BME280;3464;42.728;23.296;2023-04-01T00:25:50;94386.31;;;15.21;54.36
6851;BME280;3464;42.728;23.296;2023-04-01T00:28:18;94385.01;;;15.41;54.04
6851;BME280;3464;42.728;23.296;2023-04-01T00:30:45;94392.92;;;15.47;53.77
6851;BME280;3464;42.728;23.296;2023-04-01T00:33:13;94398.83;;;15.09;54.48
6851;BME280;3464;42.728;23.296;2023-04-01T00:35:40;94390.33;;;15.30;54.18
6851;BME280;3464;42.728;23.296;2023-04-01T00:38:07;94381.88;;;15.30;54.06
6851;BME280;3464;42.728;23.296;2023-04-01T00:40:35;94378.35;;;15.37;54.06
6851;BME280;3464;42.728;23.296;2023-04-01T00:43:01;94366.90;;;15.39;54.07
6851;BME280;3464;42.728;23.296;2023-04-01T00:45:31;94354.16;;;15.23;54.53
6851;BME280;3464;42.728;23.296;2023-04-01T00:47:56;94354.22;;;15.03;54.87
6851;BME280;3464;42.728;23.296;2023-04-01T00:50:23;94357.48;;;14.89;55.60
6851;BME280;3464;42.728;23.296;2023-04-01T00:52:52;94354.16;;;15.05;55.36
6851;BME280;3464;42.728;23.296;2023-04-01T00:55:19;94352.51;;;14.26;57.81
6851;BME280;3464;42.728;23.296;2023-04-01T00:57:48;94349.20;;;14.62;56.88
6851;BME280;3464;42.728;23.296;2023-04-01T01:00:18;94349.64;;;14.20;57.47
6851;BME280;3464;42.728;23.296;2023-04-01T01:02:51;94337.98;;;14.91;56.23
6851;BME280;3464;42.728;23.296;2023-04-01T01:05:23;94330.17;;;14.84;56.31
6851;BME280;3464;42.728;23.296;2023-04-01T01:08:00;94323.60;;;15.10;55.48
6851;BME280;3464;42.728;23.296;2023-04-01T01:10:33;94319.55;;;15.04;55.37
6851;BME280;3464;42.728;23.296;2023-04-01T01:13:41;94322.91;;;14.68;56.37
6851;BME280;3464;42.728;23.296;2023-04-01T01:15:57;94309.36;;;14.70;56.29
6851;BME280;3464;42.728;23.296;2023-04-01T01:18:33;94319.33;;;14.59;56.31
6851;BME280;3464;42.728;23.296;2023-04-01T01:29:10;94299.30;;;14.48;56.93
6851;BME280;3464;42.728;23.296;2023-04-01T01:32:13;94286.02;;;14.56;56.84
6851;BME280;3464;42.728;23.296;2023-04-01T01:37:05;94299.72;;;14.48;57.34
6851;BME280;3464;42.728;23.296;2023-04-01T01:39:30;94300.13;;;14.85;56.35
6851;BME280;3464;42.728;23.296;2023-04-01T01:41:58;94300.36;;;14.76;56.54
6851;BME280;3464;42.728;23.296;2023-04-01T01:44:24;94299.97;;;14.75;56.72
6851;BME280;3464;42.728;23.296;2023-04-01T01:46:52;94297.38;;;14.94;56.19
6851;BME280;3464;42.728;23.296;2023-04-01T01:49:19;94297.13;;;14.88;56.33
6851;BME280;3464;42.728;23.296;2023-04-01T01:51:46;94296.70;;;14.87;56.40
6851;BME280;3464;42.728;23.296;2023-04-01T01:54:15;94291.04;;;14.95;56.25
6851;BME280;3464;42.728;23.296;2023-04-01T01:56:43;94291.53;;;15.10;55.88
6851;BME280;3464;42.728;23.296;2023-04-01T01:59:11;94291.14;;;15.08;55.77
6851;BME280;3464;42.728;23.296;2023-04-01T02:01:39;94288.01;;;15.15;55.60
6851;BME280;3464;42.728;23.296;2023-04-01T02:04:07;94277.66;;;15.06;55.74
6851;BME280;3464;42.728;23.296;2023-04-01T02:06:34;94277.13;;;15.11;55.76
6851;BME280;3464;42.728;23.296;2023-04-01T02:09:02;94271.71;;;15.08;55.85
6851;BME280;3464;42.728;23.296;2023-04-01T02:11:47;94267.18;;;14.86;56.31
6851;BME280;3464;42.728;23.296;2023-04-01T02:14:16;94264.23;;;15.20;55.84
6851;BME280;3464;42.728;23.296;2023-04-01T02:16:58;94264.05;;;15.28;55.76
6851;BME280;3464;42.728;23.296;2023-04-01T02:19:27;94266.12;;;15.28;55.79
6851;BME280;3464;42.728;23.296;2023-04-01T02:21:57;94266.09;;;15.31;55.73
6851;BME280;3464;42.728;23.296;2023-04-01T02:24:26;94255.38;;;15.36;55.69
6851;BME280;3464;42.728;23.296;2023-04-01T02:26:53;94262.20;;;15.51;55.36
6851;BME280;3464;42.728;23.296;2023-04-01T02:29:24;94261.09;;;15.44;55.49
6851;BME280;3464;42.728;23.296;2023-04-01T02:31:57;94268.53;;;15.66;55.01
6851;BME280;3464;42.728;23.296;2023-04-01T02:37:59;94278.41;;;14.93;56.38
6851;BME280;3464;42.728;23.296;2023-04-01T02:40:29;94287.84;;;15.06;56.54
6851;BME280;3464;42.728;23.296;2023-04-01T02:42:59;94281.61;;;14.83;56.79
6851;BME280;3464;42.728;23.296;2023-04-01T02:45:31;94287.09;;;14.84;56.91
6851;BME280;3464;42.728;23.296;2023-04-01T02:48:17;94281.16;;;14.48;57.72
6851;BME280;3464;42.728;23.296;2023-04-01T02:50:55;94296.44;;;14.63;57.60
6851;BME280;3464;42.728;23.296;2023-04-01T02:53:26;94290.34;;;14.52;58.16
6851;BME280;3464;42.728;23.296;2023-04-01T02:55:56;94308.29;;;14.42;58.10
6851;BME280;3464;42.728;23.296;2023-04-01T02:58:22;94309.03;;;14.06;59.17
6851;BME280;3464;42.728;23.296;2023-04-01T03:00:49;94304.62;;;14.14;58.94
6851;BME280;3464;42.728;23.296;2023-04-01T03:03:16;94309.75;;;14.52;58.08
6851;BME280;3464;42.728;23.296;2023-04-01T03:05:42;94305.08;;;14.54;58.02
6851;BME280;3464;42.728;23.296;2023-04-01T03:08:13;94319.03;;;14.12;58.77
6851;BME280;3464;42.728;23.296;2023-04-01T03:10:42;94322.89;;;13.86;59.24
6851;BME280;3464;42.728;23.296;2023-04-01T03:13:09;94308.63;;;14.26;58.34
6851;BME280;3464;42.728;23.296;2023-04-01T03:15:36;94323.30;;;14.08;58.99
6851;BME280;3464;42.728;23.296;2023-04-01T03:18:04;94301.72;;;14.72;57.95
6851;BME280;3464;42.728;23.296;2023-04-01T03:20:31;94322.02;;;14.51;58.59
6851;BME280;3464;42.728;23.296;2023-04-01T03:23:02;94320.55;;;14.41;58.70
6851;BME280;3464;42.728;23.296;2023-04-01T03:25:28;94314.94;;;14.85;58.05
6851;BME280;3464;42.728;23.296;2023-04-01T03:27:56;94313.92;;;15.10;57.70
6851;BME280;3464;42.728;23.296;2023-04-01T03:30:23;94308.41;;;14.74;58.51
6851;BME280;3464;42.728;23.296;2023-04-01T03:32:52;94309.16;;;14.79;58.22
6851;BME280;3464;42.728;23.296;2023-04-01T03:35:20;94317.05;;;15.02;57.31
6851;BME280;3464;42.728;23.296;2023-04-01T03:37:48;94314.20;;;14.99;57.87
6851;BME280;3464;42.728;23.296;2023-04-01T03:40:15;94290.54;;;15.16;57.97
6851;BME280;3464;42.728;23.296;2023-04-01T03:42:42;94275.77;;;15.31;57.36
6851;BME280;3464;42.728;23.296;2023-04-01T03:45:09;94262.70;;;15.13;57.24
6851;BME280;3464;42.728;23.296;2023-04-01T03:47:41;94248.34;;;15.30;57.31
6851;BME280;3464;42.728;23.296;2023-04-01T03:50:09;94244.48;;;14.99;57.63
6851;BME280;3464;42.728;23.296;2023-04-01T03:52:37;94233.99;;;14.97;58.22
6851;BME280;3464;42.728;23.296;2023-04-01T03:55:04;94232.18;;;14.30;59.31
6851;BME280;3464;42.728;23.296;2023-04-01T03:57:33;94216.84;;;14.73;59.36
6851;BME280;3464;42.728;23.296;2023-04-01T04:00:00;94211.06;;;14.84;58.93
6851;BME280;3464;42.728;23.296;2023-04-01T04:02:27;94210.05;;;14.18;59.89
6851;BME280;3464;42.728;23.296;2023-04-01T04:04:54;94203.11;;;14.09;60.95
6851;BME280;3464;42.728;23.296;2023-04-01T04:07:22;94204.88;;;13.85;60.59
6851;BME280;3464;42.728;23.296;2023-04-01T04:09:48;94195.64;;;13.83;59.42
6851;BME280;3464;42.728;23.296;2023-04-01T04:12:16;94188.48;;;14.02;59.63
6851;BME280;3464;42.728;23.296;2023-04-01T04:17:38;94187.05;;;14.49;58.63
6851;BME280;3464;42.728;23.296;2023-04-01T04:20:07;94174.62;;;14.55;58.52
6851;BME280;3464;42.728;23.296;2023-04-01T04:22:34;94169.56;;;14.89;58.07
6851;BME280;3464;42.728;23.296;2023-04-01T04:25:01;94167.81;;;13.84;59.86
6851;BME280;3464;42.728;23.296;2023-04-01T04:27:29;94164.78;;;14.25;59.46
6851;BME280;3464;42.728;23.296;2023-04-01T04:29:55;94163.48;;;14.44;58.72
6851;BME280;3464;42.728;23.296;2023-04-01T04:32:22;94162.21;;;14.62;58.45
6851;BME280;3464;42.728;23.296;2023-04-01T04:34:49;94159.97;;;13.95;59.51
6851;BME280;3464;42.728;23.296;2023-04-01T04:37:17;94149.48;;;14.31;59.33
6851;BME280;3464;42.728;23.296;2023-04-01T04:39:45;94150.50;;;14.23;59.98
6851;BME280;3464;42.728;23.296;2023-04-01T04:42:13;94150.83;;;14.44;60.04
6851;BME280;3464;42.728;23.296;2023-04-01T04:44:40;94133.70;;;14.71;59.49
6851;BME280;3464;42.728;23.296;2023-04-01T04:47:06;94130.78;;;15.03;58.15
6851;BME280;3464;42.728;23.296;2023-04-01T04:49:33;94143.23;;;14.45;59.09
6851;BME280;3464;42.728;23.296;2023-04-01T04:52:01;94146.11;;;14.31;60.08
6851;BME280;3464;42.728;23.296;2023-04-01T04:54:29;94141.69;;;14.39;59.96
6851;BME280;3464;42.728;23.296;2023-04-01T04:56:56;94125.45;;;14.96;58.48
6851;BME280;3464;42.728;23.296;2023-04-01T04:59:22;94130.53;;;15.28;57.11
6851;BME280;3464;42.728;23.296;2023-04-01T05:01:49;94123.94;;;15.21;56.62
6851;BME280;3464;42.728;23.296;2023-04-01T05:04:16;94122.02;;;15.14;56.98
6851;BME280;3464;42.728;23.296;2023-04-01T05:06:43;94118.27;;;15.27;56.99
6851;BME280;3464;42.728;23.296;2023-04-01T05:09:12;94110.84;;;15.36;57.11
6851;BME280;3464;42.728;23.296;2023-04-01T05:11:39;94097.92;;;15.74;55.83
6851;BME280;3464;42.728;23.296;2023-04-01T05:14:11;94085.06;;;15.37;55.54
6851;BME280;3464;42.728;23.296;2023-04-01T05:16:33;94092.53;;;15.12;56.88
6851;BME280;3464;42.728;23.296;2023-04-01T05:19:02;94089.06;;;15.60;55.90
6851;BME280;3464;42.728;23.296;2023-04-01T05:21:30;94089.20;;;15.40;56.29
6851;BME280;3464;42.728;23.296;2023-04-01T05:23:57;94088.41;;;15.81;55.43
6851;BME280;3464;42.728;23.296;2023-04-01T05:26:24;94081.16;;;16.75;54.32
6851;BME280;3464;42.728;23.296;2023-04-01T05:28:52;94073.74;;;17.52;52.52
6851;BME280;3464;42.728;23.296;2023-04-01T05:31:19;94087.55;;;17.69;51.33
6851;BME280;3464;42.728;23.296;2023-04-01T05:33:46;94069.36;;;19.34;50.08
6851;BME280;3464;42.728;23.296;2023-04-01T05:36:16;94066.25;;;22.10;46.27
6851;BME280;3464;42.728;23.296;2023-04-01T05:38:42;94064.52;;;23.86;41.33
6851;BME280;3464;42.728;23.296;2023-04-01T05:41:09;94074.97;;;24.77;39.61
6851;BME280;3464;42.728;23.296;2023-04-01T05:43:38;94073.04;;;24.07;39.37
6851;BME280;3464;42.728;23.296;2023-04-01T05:46:05;94064.66;;;24.18;38.53
6851;BME280;3464;42.728;23.296;2023-04-01T05:48:32;94067.92;;;25.32;36.92
6851;BME280;3464;42.728;23.296;2023-04-01T05:51:02;94053.00;;;27.94;34.52
6851;BME280;3464;42.728;23.296;2023-04-01T05:53:31;94048.17;;;28.06;33.53
6851;BME280;3464;42.728;23.296;2023-04-01T05:58:41;94050.09;;;25.60;34.47
6851;BME280;3464;42.728;23.296;2023-04-01T06:01:10;94056.31;;;25.93;34.80
6851;BME280;3464;42.728;23.296;2023-04-01T06:03:36;94046.56;;;27.82;32.09
6851;BME280;3464;42.728;23.296;2023-04-01T06:06:03;94049.88;;;28.39;32.07
6851;BME280;3464;42.728;23.296;2023-04-01T06:08:30;94048.34;;;29.31;30.64
6851;BME280;3464;42.728;23.296;2023-04-01T06:11:04;94037.86;;;29.88;29.28
6851;BME280;3464;42.728;23.296;2023-04-01T06:14:02;94046.19;;;28.20;31.48
6851;BME280;3464;42.728;23.296;2023-04-01T06:16:35;94043.94;;;27.94;30.96
6851;BME280;3464;42.728;23.296;2023-04-01T06:19:29;94039.42;;;27.92;30.29
6851;BME280;3464;42.728;23.296;2023-04-01T06:24:54;94051.83;;;24.64;33.98
6851;BME280;3464;42.728;23.296;2023-04-01T06:27:36;94054.98;;;24.08;34.88
6851;BME280;3464;42.728;23.296;2023-04-01T06:30:24;94053.40;;;24.66;34.93
6851;BME280;3464;42.728;23.296;2023-04-01T06:33:11;94043.96;;;24.53;34.74
6851;BME280;3464;42.728;23.296;2023-04-01T06:35:46;94046.53;;;23.86;35.42
6851;BME280;3464;42.728;23.296;2023-04-01T06:38:21;94045.70;;;22.49;37.49
6851;BME280;3464;42.728;23.296;2023-04-01T06:44:09;94032.45;;;21.88;38.65
6851;BME280;3464;42.728;23.296;2023-04-01T06:46:31;94054.38;;;20.36;41.17
6851;BME280;3464;42.728;23.296;2023-04-01T06:51:45;94029.97;;;20.38;40.98
6851;BME280;3464;42.728;23.296;2023-04-01T06:54:12;94024.76;;;19.87;42.01
6851;BME280;3464;42.728;23.296;2023-04-01T06:56:40;94020.12;;;20.22;41.92
6851;BME280;3464;42.728;23.296;2023-04-01T06:59:15;94027.80;;;18.21;44.41
6851;BME280;3464;42.728;23.296;2023-04-01T07:01:44;94022.53;;;18.25;45.02
6851;BME280;3464;42.728;23.296;2023-04-01T07:04:14;94033.06;;;17.95;46.12
6851;BME280;3464;42.728;23.296;2023-04-01T07:06:39;94025.75;;;18.80;44.68
6851;BME280;3464;42.728;23.296;2023-04-01T07:09:09;94017.81;;;19.16;44.26
6851;BME280;3464;42.728;23.296;2023-04-01T07:14:21;94002.29;;;19.31;44.10
6851;BME280;3464;42.728;23.296;2023-04-01T07:17:01;94013.13;;;19.16;44.72
6851;BME280;3464;42.728;23.296;2023-04-01T07:19:56;94003.62;;;18.91;45.31
6851;BME280;3464;42.728;23.296;2023-04-01T07:22:31;94019.14;;;19.89;43.99
6851;BME280;3464;42.728;23.296;2023-04-01T07:25:04;94026.37;;;19.43;44.34
6851;BME280;3464;42.728;23.296;2023-04-01T07:27:30;94016.71;;;19.59;44.58
6851;BME280;3464;42.728;23.296;2023-04-01T07:30:12;94020.27;;;19.65;44.64
6851;BME280;3464;42.728;23.296;2023-04-01T07:32:41;94006.48;;;19.69;44.43
6851;BME280;3464;42.728;23.296;2023-04-01T07:35:13;94014.53;;;19.69;44.71
6851;BME280;3464;42.728;23.296;2023-04-01T07:37:52;94026.97;;;20.22;44.10
6851;BME280;3464;42.728;23.296;2023-04-01T07:46:23;94005.19;;;21.32;42.52
6851;BME280;3464;42.728;23.296;2023-04-01T07:48:54;94003.55;;;21.46;42.19
6851;BME280;3464;42.728;23.296;2023-04-01T07:51:29;94008.05;;;20.92;43.38
6851;BME280;3464;42.728;23.296;2023-04-01T07:54:19;93997.63;;;20.46;44.04
6851;BME280;3464;42.728;23.296;2023-04-01T07:56:49;94008.47;;;20.68;43.97
6851;BME280;3464;42.728;23.296;2023-04-01T07:59:24;94003.21;;;20.97;43.67
6851;BME280;3464;42.728;23.296;2023-04-01T08:02:25;94002.73;;;20.97;44.26
6851;BME280;3464;42.728;23.296;2023-04-01T08:04:40;93982.90;;;20.68;43.56
6851;BME280;3464;42.728;23.296;2023-04-01T08:07:11;93979.03;;;20.93;43.46
6851;BME280;3464;42.728;23.296;2023-04-01T08:12:35;93974.20;;;20.55;43.90
6851;BME280;3464;42.728;23.296;2023-04-01T08:15:06;93977.63;;;19.76;45.24
6851;BME280;3464;42.728;23.296;2023-04-01T08:18:52;93970.34;;;19.86;45.32
6851;BME280;3464;42.728;23.296;2023-04-01T08:20:37;93955.23;;;20.26;44.78
6851;BME280;3464;42.728;23.296;2023-04-01T08:23:07;93947.40;;;20.79;43.65
6851;BME280;3464;42.728;23.296;2023-04-01T08:25:33;93949.73;;;21.08;43.50
6851;BME280;3464;42.728;23.296;2023-04-01T08:30:40;93933.91;;;20.84;44.31
6851;BME280;3464;42.728;23.296;2023-04-01T08:33:15;93926.05;;;21.12;43.55
6851;BME280;3464;42.728;23.296;2023-04-01T08:36:10;93926.00;;;21.75;42.11
6851;BME280;3464;42.728;23.296;2023-04-01T08:53:11;93876.84;;;23.33;38.79
6851;BME280;3464;42.728;23.296;2023-04-01T08:55:44;93875.20;;;23.11;37.55
6851;BME280;3464;42.728;23.296;2023-04-01T08:58:31;93874.96;;;23.56;37.65
6851;BME280;3464;42.728;23.296;2023-04-01T09:00:55;93885.00;;;22.35;39.64
6851;BME280;3464;42.728;23.296;2023-04-01T09:03:41;93884.17;;;22.41;39.31
6851;BME280;3464;42.728;23.296;2023-04-01T09:09:07;93883.11;;;21.56;39.79
6851;BME280;3464;42.728;23.296;2023-04-01T09:14:17;93870.23;;;23.36;36.12
6851;BME280;3464;42.728;23.296;2023-04-01T09:16:55;93876.27;;;23.15;37.11
6851;BME280;3464;42.728;23.296;2023-04-01T09:24:43;93872.99;;;22.99;36.68
6851;BME280;3464;42.728;23.296;2023-04-01T09:27:29;93862.37;;;22.56;37.78
6851;BME280;3464;42.728;23.296;2023-04-01T09:33:32;93833.75;;;23.17;36.73
6851;BME280;3464;42.728;23.296;2023-04-01T09:36:01;93830.91;;;22.60;37.40
6851;BME280;3464;42.728;23.296;2023-04-01T09:38:25;93833.84;;;22.95;36.78
6851;BME280;3464;42.728;23.296;2023-04-01T09:40:53;93821.80;;;22.62;36.89
6851;BME280;3464;42.728;23.296;2023-04-01T09:43:22;93829.19;;;23.15;37.02
6851;BME280;3464;42.728;23.296;2023-04-01T09:45:54;93822.60;;;23.78;36.46
6851;BME280;3464;42.728;23.296;2023-04-01T09:49:16;93808.38;;;24.55;34.92
6851;BME280;3464;42.728;23.296;2023-04-01T09:51:40;93796.48;;;24.85;34.91
6851;BME280;3464;42.728;23.296;2023-04-01T09:54:26;93794.01;;;24.34;35.08
6851;BME280;3464;42.728;23.296;2023-04-01T09:57:03;93785.60;;;23.54;35.87
6851;BME280;3464;42.728;23.296;2023-04-01T09:59:51;93782.37;;;24.47;35.03
6851;BME280;3464;42.728;23.296;2023-04-01T10:02:26;93781.98;;;24.77;34.34
6851;BME280;3464;42.728;23.296;2023-04-01T10:08:14;93779.60;;;23.87;35.19
6851;BME280;3464;42.728;23.296;2023-04-01T10:16:14;93768.22;;;24.41;33.45
6851;BME280;3464;42.728;23.296;2023-04-01T10:19:03;93764.53;;;24.07;33.97
6851;BME280;3464;42.728;23.296;2023-04-01T10:22:07;93762.41;;;24.38;33.90
6851;BME280;3464;42.728;23.296;2023-04-01T10:25:02;93753.90;;;24.56;33.75
6851;BME280;3464;42.728;23.296;2023-04-01T10:27:36;93743.56;;;24.13;34.26
6851;BME280;3464;42.728;23.296;2023-04-01T10:33:21;93739.58;;;24.40;33.94
6851;BME280;3464;42.728;23.296;2023-04-01T10:36:13;93745.91;;;24.29;33.89
6851;BME280;3464;42.728;23.296;2023-04-01T10:41:41;93733.22;;;22.84;35.88
6851;BME280;3464;42.728;23.296;2023-04-01T10:47:29;93726.98;;;21.77;37.21
6851;BME280;3464;42.728;23.296;2023-04-01T10:53:58;93722.70;;;21.69;39.10
6851;BME280;3464;42.728;23.296;2023-04-01T10:58:34;93732.33;;;20.76;40.21
6851;BME280;3464;42.728;23.296;2023-04-01T11:01:07;93719.20;;;20.43;40.22
6851;BME280;3464;42.728;23.296;2023-04-01T11:10:28;93708.62;;;20.18;40.32
6851;BME280;3464;42.728;23.296;2023-04-01T11:12:19;93696.70;;;20.49;40.04
6851;BME280;3464;42.728;23.296;2023-04-01T11:15:02;93708.03;;;20.76;39.92
6851;BME280;3464;42.728;23.296;2023-04-01T11:23:27;93724.02;;;20.09;40.06
6851;BME280;3464;42.728;23.296;2023-04-01T11:25:56;93725.01;;;21.00;39.11
6851;BME280;3464;42.728;23.296;2023-04-01T11:28:43;93743.02;;;21.21;38.79
6851;BME280;3464;42.728;23.296;2023-04-01T11:34:27;93784.19;;;21.17;40.18
6851;BME280;3464;42.728;23.296;2023-04-01T11:39:59;93847.44;;;20.83;42.43
6851;BME280;3464;42.728;23.296;2023-04-01T11:48:33;93930.54;;;17.16;62.96
6851;BME280;3464;42.728;23.296;2023-04-01T12:16:39;93968.55;;;17.20;69.81
6851;BME280;3464;42.728;23.296;2023-04-01T12:29:19;93970.30;;;17.74;67.75
6851;BME280;3464;42.728;23.296;2023-04-01T12:35:32;93978.84;;;17.83;67.81
6851;BME280;3464;42.728;23.296;2023-04-01T12:41:43;93985.11;;;17.07;68.75
6851;BME280;3464;42.728;23.296;2023-04-01T12:44:37;93973.94;;;17.00;68.65
6851;BME280;3464;42.728;23.296;2023-04-01T12:47:22;93980.13;;;16.93;69.65
6851;BME280;3464;42.728;23.296;2023-04-01T12:50:10;93971.81;;;17.01;69.59
6851;BME280;3464;42.728;23.296;2023-04-01T12:52:55;93956.02;;;17.14;69.75
6851;BME280;3464;42.728;23.296;2023-04-01T12:55:21;93941.77;;;17.66;67.66
6851;BME280;3464;42.728;23.296;2023-04-01T12:59:03;93914.56;;;17.88;66.56
6851;BME280;3464;42.728;23.296;2023-04-01T13:00:44;93932.20;;;17.92;66.71
6851;BME280;3464;42.728;23.296;2023-04-01T13:08:52;93924.30;;;17.78;66.05
6851;BME280;3464;42.728;23.296;2023-04-01T13:11:20;93924.80;;;17.76;66.69
6851;BME280;3464;42.728;23.296;2023-04-01T13:16:38;93907.80;;;18.95;63.63
6851;BME280;3464;42.728;23.296;2023-04-01T13:19:07;93902.98;;;18.99;63.25
6851;BME280;3464;42.728;23.296;2023-04-01T13:26:52;93883.46;;;20.46;59.05
6851;BME280;3464;42.728;23.296;2023-04-01T13:29:22;93875.01;;;20.78;58.29
6851;BME280;3464;42.728;23.296;2023-04-01T13:31:55;93862.80;;;21.30;56.89
6851;BME280;3464;42.728;23.296;2023-04-01T13:34:47;93865.63;;;20.53;57.76
6851;BME280;3464;42.728;23.296;2023-04-01T13:40:24;93836.50;;;21.12;57.39
6851;BME280;3464;42.728;23.296;2023-04-01T13:43:05;93823.00;;;20.21;60.03
6851;BME280;3464;42.728;23.296;2023-04-01T13:46:04;93821.97;;;20.00;58.15
6851;BME280;3464;42.728;23.296;2023-04-01T13:53:45;93823.31;;;20.15;55.40
6851;BME280;3464;42.728;23.296;2023-04-01T13:57:22;93809.08;;;19.93;55.29
6851;BME280;3464;42.728;23.296;2023-04-01T13:58:59;93799.63;;;20.03;55.90
6851;BME280;3464;42.728;23.296;2023-04-01T14:01:31;93800.94;;;20.11;55.01
6851;BME280;3464;42.728;23.296;2023-04-01T14:04:19;93800.03;;;20.13;54.63
6851;BME280;3464;42.728;23.296;2023-04-01T14:07:00;93797.68;;;20.08;55.11
6851;BME280;3464;42.728;23.296;2023-04-01T14:09:30;93802.64;;;20.20;54.13
6851;BME280;3464;42.728;23.296;2023-04-01T14:14:43;93789.58;;;21.04;51.51
6851;BME280;3464;42.728;23.296;2023-04-01T14:20:07;93786.64;;;20.88;50.44
6851;BME280;3464;42.728;23.296;2023-04-01T14:22:42;93780.26;;;21.19;49.15
6851;BME280;3464;42.728;23.296;2023-04-01T14:25:30;93779.97;;;19.38;57.23
6851;BME280;3464;42.728;23.296;2023-04-01T14:28:03;93781.18;;;17.82;62.75
6851;BME280;3464;42.728;23.296;2023-04-01T14:31:15;93784.08;;;17.74;64.28
6851;BME280;3464;42.728;23.296;2023-04-01T14:33:40;93764.61;;;18.11;62.98
6851;BME280;3464;42.728;23.296;2023-04-01T14:36:19;93766.36;;;18.11;63.81
6851;BME280;3464;42.728;23.296;2023-04-01T14:38:47;93769.08;;;17.67;63.84
6851;BME280;3464;42.728;23.296;2023-04-01T14:41:21;93770.20;;;18.48;62.53
6851;BME280;3464;42.728;23.296;2023-04-01T14:43:54;93768.24;;;17.87;63.79
6851;BME280;3464;42.728;23.296;2023-04-01T14:51:39;93770.41;;;17.66;64.06
6851;BME280;3464;42.728;23.296;2023-04-01T14:54:15;93765.13;;;18.00;62.80
6851;BME280;3464;42.728;23.296;2023-04-01T14:56:44;93762.82;;;18.14;61.48
6851;BME280;3464;42.728;23.296;2023-04-01T14:59:17;93762.77;;;18.33;62.16
6851;BME280;3464;42.728;23.296;2023-04-01T15:01:46;93760.54;;;18.08;62.25
6851;BME280;3464;42.728;23.296;2023-04-01T15:04:35;93773.52;;;18.12;61.88
6851;BME280;3464;42.728;23.296;2023-04-01T15:07:20;93779.09;;;18.39;61.11
6851;BME280;3464;42.728;23.296;2023-04-01T15:09:52;93771.91;;;18.19;60.36
6851;BME280;3464;42.728;23.296;2023-04-01T15:12:30;93784.38;;;18.06;60.40
6851;BME280;3464;42.728;23.296;2023-04-01T15:20:33;93792.05;;;18.53;59.58
6851;BME280;3464;42.728;23.296;2023-04-01T15:23:06;93784.18;;;18.85;59.00
6851;BME280;3464;42.728;23.296;2023-04-01T15:25:39;93790.67;;;18.74;58.78
6851;BME280;3464;42.728;23.296;2023-04-01T15:28:17;93789.39;;;17.88;60.79
6851;BME280;3464;42.728;23.296;2023-04-01T15:30:52;93791.88;;;18.28;60.21
6851;BME280;3464;42.728;23.296;2023-04-01T15:33:37;93790.97;;;18.58;59.35
6851;BME280;3464;42.728;23.296;2023-04-01T15:36:12;93782.66;;;18.99;57.84
6851;BME280;3464;42.728;23.296;2023-04-01T15:38:51;93790.02;;;18.60;59.26
6851;BME280;3464;42.728;23.296;2023-04-01T15:41:48;93787.06;;;18.42;59.24
6851;BME280;3464;42.728;23.296;2023-04-01T15:46:50;93949.03;;;18.16;61.13
6851;BME280;3464;42.728;23.296;2023-04-01T15:49:28;93983.92;;;16.47;60.15
6851;BME280;3464;42.728;23.296;2023-04-01T15:52:02;93992.07;;;15.23;61.71
6851;BME280;3464;42.728;23.296;2023-04-01T15:54:46;93986.52;;;14.51;64.43
6851;BME280;3464;42.728;23.296;2023-04-01T15:57:26;93999.19;;;14.51;65.72
6851;BME280;3464;42.728;23.296;2023-04-01T16:00:00;93999.55;;;13.86;70.28
6851;BME280;3464;42.728;23.296;2023-04-01T16:05:05;94028.67;;;13.30;79.64
6851;BME280;3464;42.728;23.296;2023-04-01T16:07:42;94039.66;;;13.28;83.52
6851;BME280;3464;42.728;23.296;2023-04-01T16:13:22;94059.23;;;13.38;90.16
6851;BME280;3464;42.728;23.296;2023-04-01T16:15:52;94062.12;;;13.41;88.55
6851;BME280;3464;42.728;23.296;2023-04-01T16:18:37;94060.44;;;13.40;87.99
6851;BME280;3464;42.728;23.296;2023-04-01T16:21:10;94062.28;;;13.53;87.02
6851;BME280;3464;42.728;23.296;2023-04-01T16:23:50;94079.59;;;13.51;86.61
6851;BME280;3464;42.728;23.296;2023-04-01T16:29:12;94079.43;;;13.19;86.23
6851;BME280;3464;42.728;23.296;2023-04-01T16:32:12;94076.53;;;13.74;85.54
6851;BME280;3464;42.728;23.296;2023-04-01T16:34:34;94074.41;;;13.93;81.79
6851;BME280;3464;42.728;23.296;2023-04-01T16:37:07;94084.31;;;13.46;81.02
6851;BME280;3464;42.728;23.296;2023-04-01T16:39:50;94077.08;;;13.31;79.36
6851;BME280;3464;42.728;23.296;2023-04-01T16:42:25;94096.50;;;13.86;78.38
6851;BME280;3464;42.728;23.296;2023-04-01T16:45:02;94089.38;;;13.65;79.16
6851;BME280;3464;42.728;23.296;2023-04-01T16:47:31;94101.45;;;13.33;77.92
6851;BME280;3464;42.728;23.296;2023-04-01T16:53:00;94099.42;;;13.49;76.54
6851;BME280;3464;42.728;23.296;2023-04-01T16:55:34;94105.06;;;13.61;75.97
6851;BME280;3464;42.728;23.296;2023-04-01T16:57:56;94112.37;;;13.35;76.61
6851;BME280;3464;42.728;23.296;2023-04-01T17:00:31;94129.94;;;13.40;75.41
6851;BME280;3464;42.728;23.296;2023-04-01T17:03:12;94124.28;;;13.29;76.00
6851;BME280;3464;42.728;23.296;2023-04-01T17:05:48;94136.70;;;13.19;76.40
6851;BME280;3464;42.728;23.296;2023-04-01T17:08:30;94126.77;;;12.87;76.80
6851;BME280;3464;42.728;23.296;2023-04-01T17:10:57;94145.88;;;13.01;77.09
6851;BME280;3464;42.728;23.296;2023-04-01T17:13:45;94151.83;;;12.97;77.40
6851;BME280;3464;42.728;23.296;2023-04-01T17:16:20;94160.94;;;12.83;78.42